Time;durP1;ratioP1;P1;durP2;ratioP2;P2;SDS_P1;SDS_P2;PMS_P1;PMS_P2;Temp;Humidity;BMP_temperature;BMP_pressure;BME280_temperature;BME280_humidity;BME280_pressure;Samples;Min_cycle;Max_cycle;Signal;HPM_P1;HPM_P2
2023/10/03 00:00:31;;;;;;;49.58;19.58;;;;;;;12.04;100.00;97011.88;4996676;28;20109;-72
2023/10/03 00:02:58;;;;;;;45.78;20.10;;;;;;;11.95;100.00;97012.13;4992246;28;20046;-73
2023/10/03 00:05:29;;;;;;;42.25;18.80;;;;;;;11.92;100.00;97014.81;4967269;28;20543;-72
2023/10/03 00:07:56;;;;;;;47.97;20.17;;;;;;;11.88;100.00;97011.97;4974249;28;20046;-72
2023/10/03 00:10:22;;;;;;;42.67;18.33;;;;;;;11.91;100.00;97016.78;4978095;28;20057;-72
2023/10/03 00:12:49;;;;;;;46.88;19.35;;;;;;;11.84;100.00;97009.19;4981240;28;20501;-72
2023/10/03 00:15:16;;;;;;;44.78;18.25;;;;;;;11.82;100.00;97017.00;4976885;28;20069;-72
2023/10/03 00:17:42;;;;;;;43.63;17.55;;;;;;;11.77;100.00;97020.03;4977362;28;20054;-72
2023/10/03 00:20:08;;;;;;;42.60;18.70;;;;;;;11.72;100.00;97016.81;4978198;28;20579;-72
2023/10/03 00:22:34;;;;;;;44.90;19.92;;;;;;;11.71;100.00;97010.53;4961850;28;20406;-72
2023/10/03 00:25:01;;;;;;;45.42;19.15;;;;;;;11.71;100.00;97010.53;4973968;28;20057;-71
2023/10/03 00:27:28;;;;;;;47.80;20.13;;;;;;;11.71;100.00;97007.00;4970888;28;20061;-72
2023/10/03 00:29:55;;;;;;;44.60;19.95;;;;;;;11.69;100.00;97010.13;4979846;28;20046;-73
2023/10/03 00:32:20;;;;;;;46.50;19.45;;;;;;;11.66;100.00;97010.84;4968932;28;20043;-72
2023/10/03 00:34:46;;;;;;;44.08;18.52;;;;;;;11.64;100.00;97008.47;4981206;28;20401;-72
2023/10/03 00:37:11;;;;;;;41.13;18.85;;;;;;;11.60;100.00;97009.56;4966048;28;20117;-72
2023/10/03 00:39:37;;;;;;;40.70;17.90;;;;;;;11.57;100.00;97007.56;4971023;28;20065;-73
2023/10/03 00:42:08;;;;;;;43.45;17.88;;;;;;;11.53;100.00;97007.50;4969816;28;20054;-72
2023/10/03 00:44:34;;;;;;;36.88;16.67;;;;;;;11.44;100.00;97012.44;4971211;28;20489;-72
2023/10/03 00:46:59;;;;;;;35.72;16.92;;;;;;;11.41;100.00;97007.66;4974455;28;20053;-72
2023/10/03 00:49:28;;;;;;;38.05;15.23;;;;;;;11.37;100.00;97010.34;4964352;28;20062;-73
2023/10/03 00:51:56;;;;;;;43.07;16.47;;;;;;;11.25;100.00;97005.84;4965191;28;20100;-73
2023/10/03 00:54:21;;;;;;;40.47;18.67;;;;;;;11.14;100.00;97009.50;4961634;28;20058;-72
2023/10/03 00:56:47;;;;;;;38.83;17.30;;;;;;;10.98;100.00;97002.16;4972741;28;20398;-70
2023/10/03 00:59:13;;;;;;;44.70;18.35;;;;;;;10.93;100.00;96999.72;4972676;28;20050;-74
2023/10/03 01:01:40;;;;;;;46.70;20.27;;;;;;;10.86;100.00;96991.38;4974775;28;20133;-71
2023/10/03 01:04:11;;;;;;;37.72;16.95;;;;;;;10.81;100.00;96997.94;4980669;28;20050;-72
2023/10/03 01:06:36;;;;;;;40.15;18.83;;;;;;;10.84;100.00;96989.00;4992070;28;20535;-72
2023/10/03 01:09:03;;;;;;;44.95;19.65;;;;;;;10.72;100.00;96989.13;5001076;28;20089;-71
2023/10/03 01:11:29;;;;;;;40.33;18.00;;;;;;;10.56;100.00;96988.41;4976579;28;20089;-71
2023/10/03 01:13:59;;;;;;;43.80;18.60;;;;;;;10.37;100.00;96980.94;4973878;28;21997;-72
2023/10/03 01:16:36;;;;;;;47.78;19.38;;;;;;;10.21;100.00;96983.69;4974116;28;20070;-72
2023/10/03 01:19:15;;;;;;;46.25;19.35;;;;;;;10.06;100.00;96980.63;4973823;28;20061;-70
2023/10/03 01:21:41;;;;;;;54.42;23.90;;;;;;;10.05;100.00;96972.81;4972959;28;20449;-73
2023/10/03 01:24:09;;;;;;;51.00;20.52;;;;;;;10.13;100.00;96969.06;4966474;28;20058;-73
2023/10/03 01:26:35;;;;;;;54.55;22.92;;;;;;;10.17;100.00;96969.16;4975222;28;20406;-76
2023/10/03 01:29:00;;;;;;;61.65;24.30;;;;;;;10.18;100.00;96963.31;4982961;28;20085;-71
2023/10/03 01:31:27;;;;;;;55.30;21.60;;;;;;;10.25;100.00;96968.94;4979279;28;20404;-72
2023/10/03 01:33:53;;;;;;;52.15;20.63;;;;;;;10.43;100.00;96961.16;4973967;28;20050;-71
2023/10/03 01:36:18;;;;;;;66.43;31.58;;;;;;;10.50;100.00;96958.56;4972678;28;20516;-71
2023/10/03 01:38:45;;;;;;;51.38;21.55;;;;;;;10.69;100.00;96967.94;4976374;28;20078;-71
2023/10/03 01:41:12;;;;;;;50.67;21.10;;;;;;;10.72;100.00;96969.94;4972134;28;20078;-72
2023/10/03 01:43:44;;;;;;;54.47;20.38;;;;;;;10.71;100.00;96980.13;4975988;28;20057;-70
2023/10/03 01:46:11;;;;;;;44.97;20.05;;;;;;;10.52;100.00;96978.16;4968931;28;20053;-72
2023/10/03 01:48:37;;;;;;;47.60;19.02;;;;;;;10.53;100.00;96973.47;4982241;28;20396;-71
2023/10/03 01:51:03;;;;;;;43.72;18.20;;;;;;;10.51;100.00;96975.78;4971750;28;20042;-72
2023/10/03 01:53:29;;;;;;;41.53;17.17;;;;;;;10.46;100.00;96976.88;4977454;28;20042;-72
2023/10/03 01:55:58;;;;;;;44.80;19.38;;;;;;;10.32;100.00;96969.13;4973098;28;20043;-72
2023/10/03 01:58:24;;;;;;;39.22;17.75;;;;;;;10.28;100.00;96964.69;4974923;28;20435;-72
2023/10/03 02:00:50;;;;;;;39.00;17.40;;;;;;;10.17;100.00;96960.94;4973095;28;20050;-71
2023/10/03 02:03:18;;;;;;;52.22;21.58;;;;;;;10.05;100.00;96970.06;4969060;28;20093;-73
2023/10/03 02:05:44;;;;;;;48.05;19.20;;;;;;;9.86;100.00;96955.16;4966587;28;20086;-72
2023/10/03 02:08:15;;;;;;;47.97;18.75;;;;;;;9.76;100.00;96955.72;4971705;28;20062;-73
2023/10/03 02:10:44;;;;;;;46.63;19.02;;;;;;;9.68;100.00;96951.22;4985564;28;20057;-71
2023/10/03 02:13:19;;;;;;;47.80;21.80;;;;;;;9.71;100.00;96951.31;4964265;28;20134;-72
2023/10/03 02:15:45;;;;;;;43.25;19.95;;;;;;;9.70;100.00;96954.41;4969440;28;20059;-71
2023/10/03 02:18:17;;;;;;;50.63;19.27;;;;;;;9.95;100.00;96955.75;4971104;28;20058;-72
2023/10/03 02:20:47;;;;;;;45.47;18.75;;;;;;;10.01;100.00;96950.03;4981554;28;20062;-71
2023/10/03 02:23:19;;;;;;;43.10;17.52;;;;;;;10.13;100.00;96949.91;4967616;28;20046;-72
2023/10/03 02:25:45;;;;;;;44.50;18.10;;;;;;;10.11;100.00;96953.00;4971960;28;20039;-72
2023/10/03 02:28:14;;;;;;;45.05;18.10;;;;;;;10.18;100.00;96954.31;4968974;28;20053;-72
2023/10/03 02:30:40;;;;;;;47.65;18.85;;;;;;;10.10;100.00;96943.22;4972163;28;20038;-70
2023/10/03 02:33:10;;;;;;;39.42;17.42;;;;;;;10.03;100.00;96953.19;4973566;28;20142;-70
2023/10/03 02:35:38;;;;;;;41.47;17.65;;;;;;;10.05;100.00;96946.22;4978053;28;20100;-71
2023/10/03 02:38:05;;;;;;;44.83;18.45;;;;;;;9.98;100.00;96940.59;4965364;28;20047;-71
2023/10/03 02:40:32;;;;;;;45.28;18.10;;;;;;;9.89;100.00;96938.06;4971332;28;20043;-72
2023/10/03 02:42:59;;;;;;;48.83;18.60;;;;;;;9.88;100.00;96946.59;4981693;28;20046;-70
2023/10/03 02:45:25;;;;;;;46.33;18.27;;;;;;;9.83;100.00;96939.47;4964232;28;20047;-71
2023/10/03 02:47:55;;;;;;;39.42;16.20;;;;;;;9.98;100.00;96948.03;4963873;28;20039;-70
2023/10/03 02:50:22;;;;;;;32.95;15.13;;;;;;;10.07;100.00;96945.88;4972829;28;20054;-70
2023/10/03 02:52:48;;;;;;;38.10;15.18;;;;;;;10.13;100.00;96942.47;4975202;28;20061;-73
2023/10/03 02:55:15;;;;;;;37.78;16.00;;;;;;;10.20;100.00;96944.59;4966750;28;20133;-74
2023/10/03 02:57:41;;;;;;;42.42;17.20;;;;;;;10.30;100.00;96946.00;4972171;28;20092;-72
2023/10/03 03:00:16;;;;;;;37.47;16.05;;;;;;;10.33;100.00;96942.53;4966757;28;20046;-73
2023/10/03 03:02:47;;;;;;;36.38;15.30;;;;;;;10.21;100.00;96943.44;4980214;28;20049;-74
2023/10/03 03:05:17;;;;;;;34.55;14.30;;;;;;;10.11;100.00;96946.75;4967436;28;20042;-74
2023/10/03 03:07:47;;;;;;;35.47;15.35;;;;;;;9.99;100.00;96936.69;4978419;28;20049;-76
2023/10/03 03:10:14;;;;;;;36.03;16.05;;;;;;;9.91;100.00;96949.44;4978868;28;20048;-77
2023/10/03 03:12:42;;;;;;;40.08;16.70;;;;;;;9.91;100.00;96935.75;4976276;28;20049;-75
2023/10/03 03:15:10;;;;;;;35.10;16.02;;;;;;;9.94;100.00;96939.72;4987051;28;20043;-74
2023/10/03 03:17:36;;;;;;;40.30;16.95;;;;;;;9.97;100.00;96940.94;4968080;28;20093;-72
2023/10/03 03:20:14;;;;;;;36.50;16.00;;;;;;;10.05;100.00;96937.22;4970943;28;20122;-73
2023/10/03 03:22:52;;;;;;;36.90;15.40;;;;;;;10.08;100.00;96945.53;4969262;28;20501;-73
2023/10/03 03:25:35;;;;;;;34.15;15.55;;;;;;;10.08;100.00;96941.97;4967864;28;20093;-73
2023/10/03 03:28:00;;;;;;;36.88;14.90;;;;;;;10.16;100.00;96945.69;4980249;28;20489;-73
2023/10/03 03:32:57;;;;;;;39.28;15.35;;;;;;;10.17;100.00;96948.03;4969825;28;20045;-72
2023/10/03 03:35:26;;;;;;;50.15;18.92;;;;;;;10.02;100.00;96944.19;4963236;28;20140;-71
2023/10/03 03:37:56;;;;;;;42.38;17.73;;;;;;;9.83;100.00;96942.22;4981244;28;20043;-72
2023/10/03 03:40:33;;;;;;;47.47;18.45;;;;;;;9.87;100.00;96945.03;4972200;28;20641;-73
2023/10/03 03:43:00;;;;;;;40.40;16.73;;;;;;;9.89;100.00;96943.53;4969863;28;20049;-74
2023/10/03 03:45:26;;;;;;;37.35;16.15;;;;;;;10.09;100.00;96955.31;4972643;28;20046;-73
2023/10/03 03:47:55;;;;;;;42.15;16.17;;;;;;;10.18;100.00;96952.38;4972292;28;20046;-73
2023/10/03 03:50:24;;;;;;;41.60;16.85;;;;;;;10.35;100.00;96951.19;4958597;28;20053;-71
2023/10/03 03:52:51;;;;;;;42.33;16.90;;;;;;;10.33;100.00;96945.28;4970856;28;20187;-72
2023/10/03 03:55:17;;;;;;;39.88;15.63;;;;;;;10.46;100.00;96954.16;4964978;28;20134;-73
2023/10/03 03:57:45;;;;;;;44.83;17.02;;;;;;;10.63;100.00;96952.94;4970816;28;20494;-73
2023/10/03 04:00:14;;;;;;;38.95;16.42;;;;;;;10.67;100.00;96954.59;4977030;28;20057;-73
2023/10/03 04:02:40;;;;;;;36.53;15.18;;;;;;;10.66;100.00;96953.03;4974902;28;20445;-72
2023/10/03 04:05:07;;;;;;;38.22;14.75;;;;;;;10.60;100.00;96942.69;4976391;28;20052;-71
2023/10/03 04:07:38;;;;;;;36.58;15.23;;;;;;;10.50;100.00;96944.88;4976609;28;20138;-72
2023/10/03 04:10:12;;;;;;;39.75;16.88;;;;;;;10.43;100.00;96936.50;4967751;28;20054;-73
2023/10/03 04:12:42;;;;;;;38.42;15.73;;;;;;;10.37;100.00;96945.34;4978225;28;20052;-71
2023/10/03 04:15:18;;;;;;;43.05;16.17;;;;;;;10.51;100.00;96932.78;4970157;28;20154;-73
2023/10/03 04:17:44;;;;;;;50.83;18.40;;;;;;;10.59;100.00;96941.09;4973661;28;20062;-71
2023/10/03 04:20:25;;;;;;;51.88;18.98;;;;;;;10.55;100.00;96929.28;4976447;28;20066;-71
2023/10/03 04:22:51;;;;;;;61.03;21.42;;;;;;;10.56;100.00;96945.38;4971265;28;20497;-72
2023/10/03 04:25:20;;;;;;;70.53;20.10;;;;;;;10.40;100.00;96941.91;4970136;28;20050;-72
2023/10/03 04:27:53;;;;;;;68.07;21.33;;;;;;;10.51;100.00;96948.38;4973064;28;20038;-73
2023/10/03 04:30:21;;;;;;;57.63;20.65;;;;;;;10.51;100.00;96941.00;4964125;28;20066;-74
2023/10/03 04:32:47;;;;;;;55.95;19.60;;;;;;;10.53;100.00;96946.09;4983109;28;20085;-72
2023/10/03 04:35:18;;;;;;;61.97;19.10;;;;;;;10.51;100.00;96941.00;4980086;28;20039;-70
2023/10/03 04:37:44;;;;;;;58.45;19.65;;;;;;;10.51;100.00;96937.44;4974204;28;20042;-70
2023/10/03 04:40:13;;;;;;;66.57;20.45;;;;;;;10.49;100.00;96939.75;4973620;28;20493;-72
2023/10/03 04:42:40;;;;;;;59.17;19.63;;;;;;;10.41;100.00;96938.81;4978320;28;20057;-72
2023/10/03 04:45:10;;;;;;;64.85;18.67;;;;;;;10.38;100.00;96944.22;4981231;28;20049;-71
2023/10/03 04:47:41;;;;;;;59.97;19.48;;;;;;;10.38;100.00;96941.47;4986638;28;20039;-71
2023/10/03 04:50:07;;;;;;;72.10;21.17;;;;;;;10.31;100.00;96942.13;4969827;28;20145;-72
2023/10/03 04:52:32;;;;;;;63.35;20.55;;;;;;;10.07;100.00;96943.13;4974552;28;20420;-72
2023/10/03 04:54:58;;;;;;;75.00;20.30;;;;;;;9.98;100.00;96935.13;4975307;28;20058;-72
2023/10/03 04:57:26;;;;;;;96.13;20.27;;;;;;;9.91;100.00;96943.16;4967116;28;20858;-72
2023/10/03 04:59:52;;;;;;;64.00;21.92;;;;;;;9.98;100.00;96939.81;4980129;28;20065;-72
2023/10/03 05:02:18;;;;;;;56.35;21.02;;;;;;;10.13;100.00;96937.00;4969032;28;20571;-71
2023/10/03 05:04:43;;;;;;;57.55;21.63;;;;;;;10.22;100.00;96938.75;4979136;28;20043;-71
2023/10/03 05:07:10;;;;;;;63.60;22.77;;;;;;;10.26;100.00;96932.22;4963950;28;20057;-71
2023/10/03 05:09:36;;;;;;;67.03;22.92;;;;;;;10.32;100.00;96940.97;4978095;28;20039;-70
2023/10/03 05:12:04;;;;;;;61.22;21.75;;;;;;;10.31;100.00;96928.44;4974012;28;20397;-72
2023/10/03 05:14:30;;;;;;;57.67;21.50;;;;;;;10.37;100.00;96937.97;4987179;28;20046;-72
2023/10/03 05:16:58;;;;;;;57.22;21.15;;;;;;;10.37;100.00;96937.16;4971292;28;20054;-71
2023/10/03 05:19:24;;;;;;;53.30;19.83;;;;;;;10.35;100.00;96933.97;4972008;28;20336;-73
2023/10/03 05:21:49;;;;;;;48.25;20.17;;;;;;;10.31;100.00;96937.41;4977506;28;20050;-72
2023/10/03 05:24:15;;;;;;;63.40;21.80;;;;;;;10.26;100.00;96936.88;4978185;28;20046;-72
2023/10/03 05:26:41;;;;;;;59.63;21.55;;;;;;;10.21;100.00;96935.25;4977471;28;20074;-72
2023/10/03 05:29:07;;;;;;;57.28;19.85;;;;;;;10.18;100.00;96935.16;4965522;28;20097;-72
2023/10/03 05:31:34;;;;;;;63.45;21.77;;;;;;;10.16;100.00;96940.22;4964902;28;20113;-72
2023/10/03 05:34:00;;;;;;;55.85;21.33;;;;;;;10.22;100.00;96946.97;4967537;28;20057;-74
2023/10/03 05:36:25;;;;;;;63.25;20.98;;;;;;;10.07;100.00;96940.41;4979999;28;20057;-71
2023/10/03 05:38:51;;;;;;;48.38;20.42;;;;;;;10.12;100.00;96940.13;4974475;28;20051;-71
2023/10/03 05:41:21;;;;;;;54.60;20.38;;;;;;;10.19;100.00;96948.50;4971362;28;20398;-72
2023/10/03 05:43:46;;;;;;;;;;;;;;;10.17;100.00;96944.50;4971322;28;20050;-71
2023/10/03 05:46:11;;;;;;;58.90;20.10;;;;;;;10.13;100.00;96947.16;4970357;28;20400;-71
2023/10/03 05:48:37;;;;;;;55.15;20.35;;;;;;;10.22;100.00;96947.75;4976361;28;20053;-71
2023/10/03 05:51:02;;;;;;;48.50;18.77;;;;;;;10.37;100.00;96957.13;4981966;28;20142;-70
2023/10/03 05:53:28;;;;;;;46.55;18.65;;;;;;;10.54;100.00;96953.16;4981295;28;20057;-71
2023/10/03 05:55:53;;;;;;;45.88;18.42;;;;;;;10.81;100.00;96954.09;4974989;28;20050;-70
2023/10/03 05:58:18;;;;;;;46.80;17.45;;;;;;;11.24;100.00;96952.13;4958973;28;20034;-72
2023/10/03 06:00:44;;;;;;;39.15;16.10;;;;;;;11.80;100.00;96958.94;4963511;28;20558;-72
2023/10/03 06:03:10;;;;;;;40.92;14.85;;;;;;;12.00;100.00;96956.13;4984806;28;20093;-71
2023/10/03 06:05:35;;;;;;;32.67;14.63;;;;;;;12.35;100.00;96953.09;4970898;28;20797;-71
2023/10/03 06:08:01;;;;;;;34.53;13.93;;;;;;;12.98;100.00;96965.25;4981464;28;20051;-71
2023/10/03 06:10:29;;;;;;;33.85;14.20;;;;;;;13.28;100.00;96960.84;4985874;28;20556;-71
2023/10/03 06:12:54;;;;;;;39.17;14.00;;;;;;;13.18;100.00;96967.81;4966904;28;20073;-71
2023/10/03 06:15:20;;;;;;;35.28;14.95;;;;;;;13.51;100.00;96972.50;4965566;28;20502;-71
2023/10/03 06:17:45;;;;;;;36.03;14.82;;;;;;;14.46;100.00;96967.28;4971941;28;20367;-70
2023/10/03 06:20:14;;;;;;;34.70;13.93;;;;;;;15.57;100.00;96972.38;4967570;28;20042;-71
2023/10/03 06:22:40;;;;;;;38.35;14.45;;;;;;;16.54;100.00;96985.34;4971627;28;20049;-71
2023/10/03 06:25:07;;;;;;;36.53;15.18;;;;;;;17.31;100.00;96979.91;4967747;28;20070;-72
2023/10/03 06:27:33;;;;;;;33.80;13.60;;;;;;;17.92;95.31;96989.84;4961299;28;20074;-72
2023/10/03 06:30:02;;;;;;;38.17;15.20;;;;;;;18.05;91.09;96998.44;4968170;28;20146;-71
2023/10/03 06:32:27;;;;;;;34.03;14.73;;;;;;;18.52;88.78;96996.00;4966241;28;20051;-73
2023/10/03 06:34:53;;;;;;;34.80;14.18;;;;;;;18.84;87.12;97004.00;4985998;28;20050;-70
2023/10/03 06:37:18;;;;;;;32.72;15.60;;;;;;;19.13;84.58;97003.66;4965855;28;20559;-70
2023/10/03 06:39:43;;;;;;;31.67;13.95;;;;;;;19.48;80.06;97012.72;4971755;28;20049;-69
2023/10/03 06:42:09;;;;;;;36.83;14.45;;;;;;;18.64;80.01;97011.34;4965881;28;20042;-69
2023/10/03 06:44:36;;;;;;;39.28;14.50;;;;;;;18.30;89.80;97012.06;4967390;28;20047;-71
2023/10/03 06:47:04;;;;;;;37.17;14.60;;;;;;;17.79;90.31;97008.91;4982989;28;20053;-70
2023/10/03 06:49:29;;;;;;;39.05;15.15;;;;;;;17.20;97.04;97004.88;4966697;28;20104;-70
2023/10/03 06:51:57;;;;;;;35.13;15.68;;;;;;;17.67;94.60;97003.84;4963390;28;20054;-69
2023/10/03 06:54:25;;;;;;;36.58;16.20;;;;;;;18.33;93.71;96998.19;4964521;28;20057;-69
2023/10/03 06:56:51;;;;;;;33.80;14.50;;;;;;;19.78;85.02;97013.91;4970550;28;20069;-69
2023/10/03 06:59:17;;;;;;;36.58;15.57;;;;;;;20.82;78.37;97014.94;4933782;28;20483;-69
2023/10/03 07:01:42;;;;;;;36.67;15.52;;;;;;;21.11;75.02;97017.94;4974210;28;20050;-68
2023/10/03 07:04:08;;;;;;;39.70;15.38;;;;;;;21.86;69.83;97015.56;4966079;28;20061;-70
2023/10/03 07:06:34;;;;;;;37.08;16.65;;;;;;;22.71;66.14;97016.66;4971393;28;20134;-71
2023/10/03 07:09:07;;;;;;;37.33;16.02;;;;;;;23.38;62.89;97018.00;4973278;28;20046;-70
2023/10/03 07:11:32;;;;;;;36.88;15.88;;;;;;;23.81;61.10;97033.53;4980683;28;20105;-69
2023/10/03 07:13:58;;;;;;;36.17;15.88;;;;;;;23.21;61.65;97034.06;4972304;28;20437;-71
2023/10/03 07:16:24;;;;;;;34.70;16.25;;;;;;;23.28;63.41;97028.25;4967660;28;20436;-70
2023/10/03 07:18:49;;;;;;;36.72;16.15;;;;;;;23.71;61.38;97026.22;4977446;28;20521;-72
2023/10/03 07:21:18;;;;;;;37.28;17.15;;;;;;;23.23;62.55;97024.00;4965765;28;20062;-68
2023/10/03 07:23:44;;;;;;;30.77;15.87;;;;;;;24.17;60.30;97021.97;4977631;28;20042;-70
2023/10/03 07:26:09;;;;;;;36.15;16.70;;;;;;;24.51;58.66;97028.06;4978097;28;20344;-69
2023/10/03 07:28:38;;;;;;;39.83;19.13;;;;;;;24.02;60.33;97029.25;4981054;28;20050;-69
2023/10/03 07:31:08;;;;;;;38.90;18.42;;;;;;;23.65;63.21;97020.38;4974990;28;20073;-70
2023/10/03 07:33:33;;;;;;;37.33;18.38;;;;;;;23.13;64.77;97018.72;4979042;28;20050;-70
2023/10/03 07:36:04;;;;;;;37.13;17.10;;;;;;;21.45;77.54;97016.06;4966696;28;20046;-72
2023/10/03 07:38:29;;;;;;;43.95;18.27;;;;;;;21.43;86.00;97012.91;4970579;28;20051;-71
2023/10/03 07:40:55;;;;;;;44.10;18.10;;;;;;;22.20;79.28;97016.34;4966412;28;20047;-70
2023/10/03 07:43:20;;;;;;;44.50;18.77;;;;;;;23.01;76.65;97021.03;4965473;28;20098;-70
2023/10/03 07:45:45;;;;;;;41.35;18.70;;;;;;;22.83;76.09;97018.72;4970566;28;20490;-72
2023/10/03 07:48:11;;;;;;;42.20;18.92;;;;;;;23.09;76.72;97019.63;4966949;28;20832;-71
2023/10/03 07:50:37;;;;;;;42.65;19.30;;;;;;;24.34;70.19;97022.59;4967576;28;20147;-71
2023/10/03 07:53:05;;;;;;;38.15;18.45;;;;;;;24.52;69.07;97027.59;4970270;28;20182;-70
2023/10/03 07:55:35;;;;;;;41.58;18.67;;;;;;;25.51;64.07;97024.50;4974202;28;20051;-72
2023/10/03 07:58:00;;;;;;;40.65;18.77;;;;;;;24.55;65.03;97029.53;4972618;28;20042;-71
2023/10/03 08:00:26;;;;;;;36.08;17.05;;;;;;;25.24;65.08;97029.91;4966990;28;20053;-71
2023/10/03 08:02:55;;;;;;;35.60;17.50;;;;;;;25.52;64.15;97030.91;4977905;28;20077;-71
2023/10/03 08:05:25;;;;;;;;;;;;;;;27.12;58.34;97038.84;4965219;28;20103;-71
2023/10/03 08:07:51;;;;;;;32.92;16.65;;;;;;;27.75;54.56;97044.03;4970169;28;20300;-72
2023/10/03 08:10:17;;;;;;;38.70;16.88;;;;;;;28.28;52.87;97045.59;4968061;28;20039;-72
2023/10/03 08:12:43;;;;;;;36.45;16.50;;;;;;;28.40;50.24;97048.16;4973619;28;20130;-71
2023/10/03 08:15:18;;;;;;;36.05;16.83;;;;;;;28.13;50.82;97040.66;4972397;28;20089;-71
2023/10/03 08:17:45;;;;;;;35.00;15.50;;;;;;;28.01;50.34;97052.91;4977693;28;20533;-71
2023/10/03 08:20:14;;;;;;;34.35;15.82;;;;;;;28.30;50.93;97057.16;4971373;28;20042;-71
2023/10/03 08:22:50;;;;;;;35.25;15.60;;;;;;;27.79;51.41;97053.13;4976184;28;20141;-71
2023/10/03 08:25:23;;;;;;;36.70;16.10;;;;;;;25.67;56.80;97040.31;4964362;28;20046;-72
2023/10/03 08:27:49;;;;;;;34.80;16.13;;;;;;;26.83;57.32;97036.47;4977287;28;20042;-72
2023/10/03 08:30:28;;;;;;;40.10;21.90;;;;;;;28.24;52.04;97042.16;4969356;28;20065;-71
2023/10/03 08:32:58;;;;;;;29.07;14.83;;;;;;;28.56;51.20;97044.19;4971813;28;20047;-71
2023/10/03 08:35:35;;;;;;;36.40;15.98;;;;;;;29.31;48.68;97047.22;4983107;28;20046;-71
2023/10/03 08:38:13;;;;;;;32.17;15.45;;;;;;;29.34;46.43;97047.03;4981849;28;20583;-71
2023/10/03 08:40:40;;;;;;;31.52;16.42;;;;;;;28.47;48.36;97049.06;4964934;28;20050;-72
2023/10/03 08:43:10;;;;;;;31.23;14.68;;;;;;;29.12;47.00;97044.56;4975778;28;20038;-72
2023/10/03 08:45:43;;;;;;;29.83;13.57;;;;;;;29.77;44.13;97049.59;4979351;28;20050;-71
2023/10/03 08:48:11;;;;;;;26.70;13.93;;;;;;;30.24;43.22;97047.78;4969851;28;20039;-71
2023/10/03 08:50:39;;;;;;;28.80;14.17;;;;;;;30.22;42.08;97049.53;4979608;28;20042;-72
2023/10/03 08:53:26;;;;;;;30.13;13.43;;;;;;;30.62;40.82;97050.88;4969193;28;20141;-71
2023/10/03 08:55:57;;;;;;;30.77;15.10;;;;;;;29.87;42.89;97053.09;4955736;28;20401;-71
2023/10/03 08:58:25;;;;;;;28.08;13.93;;;;;;;29.46;43.02;97048.03;4972404;28;20590;-70
2023/10/03 09:00:58;;;;;;;29.15;14.13;;;;;;;28.13;44.81;97049.09;4976560;28;20050;-71
2023/10/03 09:03:25;;;;;;;27.60;12.70;;;;;;;28.57;44.73;97044.97;4969108;28;20108;-72
2023/10/03 09:05:50;;;;;;;32.72;12.93;;;;;;;28.76;45.14;97048.44;4973324;28;20105;-71
2023/10/03 09:08:17;;;;;;;25.10;12.15;;;;;;;29.02;44.02;97050.75;4964156;28;20535;-71
2023/10/03 09:10:51;;;;;;;28.42;13.30;;;;;;;28.00;44.27;97056.97;4972275;28;20141;-69
2023/10/03 09:13:25;;;;;;;25.45;12.23;;;;;;;27.77;45.16;97050.78;4971574;28;20129;-70
2023/10/03 09:15:59;;;;;;;27.55;12.23;;;;;;;27.91;45.02;97048.56;4972300;28;20157;-71
2023/10/03 09:18:29;;;;;;;25.33;12.55;;;;;;;27.19;45.55;97057.41;4959486;28;20818;-71
2023/10/03 09:21:04;;;;;;;28.23;12.15;;;;;;;27.91;44.66;97042.91;4971941;28;20097;-72
2023/10/03 09:23:38;;;;;;;25.90;12.23;;;;;;;28.85;42.62;97048.38;4969075;28;20046;-73
2023/10/03 09:26:06;;;;;;;33.13;12.90;;;;;;;28.29;44.45;97047.13;4981984;28;20480;-72
2023/10/03 09:28:35;;;;;;;27.87;12.10;;;;;;;29.17;42.08;97049.56;4970641;28;20050;-72
2023/10/03 09:31:08;;;;;;;30.10;13.52;;;;;;;29.41;42.00;97048.69;4974170;28;20330;-73
2023/10/03 09:33:38;;;;;;;27.35;12.43;;;;;;;27.72;46.03;97031.72;4976702;28;20049;-72
2023/10/03 09:36:05;;;;;;;26.92;13.20;;;;;;;28.49;44.77;97036.06;4963828;28;20047;-72
2023/10/03 09:38:46;;;;;;;26.67;13.13;;;;;;;28.90;43.47;97039.25;4977377;28;20082;-72
2023/10/03 09:41:23;;;;;;;26.58;11.52;;;;;;;28.34;45.06;97027.56;4982147;28;20057;-73
2023/10/03 09:43:56;;;;;;;25.85;12.30;;;;;;;28.96;44.27;97030.91;4975925;28;20050;-72
2023/10/03 09:46:23;;;;;;;28.83;15.25;;;;;;;29.43;42.59;97022.81;4977079;28;20039;-72
2023/10/03 09:48:53;;;;;;;23.77;11.93;;;;;;;29.92;42.06;97022.13;4979315;28;20401;-72
2023/10/03 09:51:45;;;;;;;26.83;12.15;;;;;;;29.77;41.62;97020.59;4967273;28;20050;-72
2023/10/03 09:54:15;;;;;;;27.42;11.55;;;;;;;29.15;43.32;97020.25;4961497;28;20054;-72
2023/10/03 09:56:41;;;;;;;;;;;;;;;29.57;42.98;97022.06;4982768;28;20046;-73
2023/10/03 09:59:17;;;;;;;23.15;11.85;;;;;;;29.51;42.58;97023.97;4961815;28;20305;-73
2023/10/03 10:01:45;;;;;;;32.15;13.00;;;;;;;29.71;43.06;97018.44;4977281;28;20042;-73
2023/10/03 10:04:15;;;;;;;25.20;13.05;;;;;;;29.79;42.87;97016.03;4960404;28;20147;-73
2023/10/03 10:06:47;;;;;;;29.23;13.07;;;;;;;30.12;42.16;97009.31;4983914;28;20053;-73
2023/10/03 10:09:28;;;;;;;23.95;11.40;;;;;;;30.67;41.05;97014.22;4966712;28;20051;-73
2023/10/03 10:12:09;;;;;;;25.42;12.38;;;;;;;30.79;41.65;97017.97;4978056;28;20046;-73
2023/10/03 10:15:13;;;;;;;24.17;11.57;;;;;;;30.47;42.38;97017.81;4982664;28;20050;-73
2023/10/03 10:17:51;;;;;;;27.45;11.70;;;;;;;29.91;43.16;97009.28;4971517;28;20046;-73
2023/10/03 10:20:43;;;;;;;28.52;15.80;;;;;;;29.48;44.61;97008.03;4960585;28;20105;-72
2023/10/03 10:25:50;;;;;;;26.67;12.25;;;;;;;28.47;46.51;97009.63;4969153;28;20053;-72
2023/10/03 10:28:20;;;;;;;29.17;12.10;;;;;;;27.13;49.31;96997.44;4966839;28;20090;-73
2023/10/03 10:31:11;;;;;;;24.40;11.80;;;;;;;26.37;51.87;97009.09;4972915;28;20434;-73
2023/10/03 10:33:37;;;;;;;27.92;13.02;;;;;;;25.85;53.61;97008.78;4970504;28;20046;-71
2023/10/03 10:36:03;;;;;;;30.95;14.55;;;;;;;24.73;57.79;96997.34;4970243;28;20053;-71
2023/10/03 10:38:32;;;;;;;30.40;14.30;;;;;;;24.56;60.36;96991.09;4968374;28;20104;-71
2023/10/03 10:41:30;;;;;;;33.83;14.38;;;;;;;23.95;62.40;96988.31;4981593;28;20174;-71
2023/10/03 10:44:09;;;;;;;28.25;12.52;;;;;;;23.75;63.70;96985.72;4978186;28;20054;-72
2023/10/03 10:46:36;;;;;;;29.75;13.60;;;;;;;23.73;62.31;96990.97;4969788;28;20046;-73
2023/10/03 10:49:06;;;;;;;33.35;14.95;;;;;;;23.74;63.72;96983.38;4970989;28;20050;-73
2023/10/03 10:51:35;;;;;;;30.27;14.25;;;;;;;23.79;64.74;96983.59;4981913;28;20042;-72
2023/10/03 10:54:04;;;;;;;33.78;14.30;;;;;;;24.46;64.38;96981.81;4983153;28;20047;-73
2023/10/03 10:56:32;;;;;;;30.20;13.60;;;;;;;24.10;66.47;96973.84;4974035;28;20050;-73
2023/10/03 10:59:06;;;;;;;31.02;13.30;;;;;;;24.47;66.30;96977.81;4997493;28;20517;-72
2023/10/03 11:01:39;;;;;;;28.40;13.13;;;;;;;24.54;66.92;96977.59;4971026;28;20141;-72
2023/10/03 11:04:06;;;;;;;28.20;13.90;;;;;;;24.97;64.59;96973.25;4975783;28;20069;-72
2023/10/03 11:06:32;;;;;;;27.52;12.80;;;;;;;25.39;62.81;96974.91;4982973;28;20520;-72
2023/10/03 11:08:57;;;;;;;29.15;12.68;;;;;;;25.69;62.15;96970.53;4982204;28;20057;-72
2023/10/03 11:11:34;;;;;;;27.85;13.25;;;;;;;25.78;61.11;96969.00;4965863;28;20822;-71
2023/10/03 11:13:59;;;;;;;26.45;12.07;;;;;;;26.23;61.65;96961.97;4970397;28;20047;-71
2023/10/03 11:16:26;;;;;;;26.55;12.27;;;;;;;26.30;60.42;96961.69;4965326;28;20442;-71
2023/10/03 11:18:54;;;;;;;31.08;14.30;;;;;;;25.47;64.07;96962.19;5016679;23;20050;-69
2023/10/03 11:21:21;;;;;;;29.00;12.25;;;;;;;25.00;65.86;96965.94;5021711;28;20076;-68
2023/10/03 11:24:22;;;;;;;29.48;13.48;;;;;;;24.56;67.89;96949.09;5027725;28;20049;-69
2023/10/03 11:26:51;;;;;;;29.20;12.13;;;;;;;24.01;68.24;96946.56;5019328;28;20095;-69